Time;durP1;ratioP1;P1;durP2;ratioP2;P2;SDS_P1;SDS_P2;PMS_P1;PMS_P2;Temp;Humidity;BMP_temperature;BMP_pressure;BME280_temperature;BME280_humidity;BME280_pressure;Samples;Min_cycle;Max_cycle;Signal;HPM_P1;HPM_P2
2023/04/02 00:03:09;;;;;;;8.32;4.15;;;;;;;10.69;55.61;98770.03;7631313;32;37009;-85
2023/04/02 00:07:32;;;;;;;10.48;4.32;;;;;;;10.68;55.43;98784.81;7630873;32;39386;-86
2023/04/02 00:11:53;;;;;;;9.48;4.47;;;;;;;10.65;55.13;98783.47;7630914;32;39616;-85
2023/04/02 00:16:14;;;;;;;6.30;3.53;;;;;;;10.73;54.64;98790.16;7623852;32;37830;-86
2023/04/02 00:20:35;;;;;;;7.65;3.95;;;;;;;10.83;54.07;98784.56;7630624;32;37060;-86
2023/04/02 00:24:53;;;;;;;6.28;3.67;;;;;;;10.81;53.78;98788.66;7632909;32;39375;-86
2023/04/02 00:29:10;;;;;;;5.28;3.17;;;;;;;10.68;54.18;98779.34;7633957;32;39878;-86
2023/04/02 00:33:30;;;;;;;5.22;3.08;;;;;;;10.46;54.96;98788.13;7633817;32;37937;-85
2023/04/02 00:37:46;;;;;;;5.37;2.75;;;;;;;10.39;55.42;98788.50;7632668;32;36829;-85
2023/04/02 00:42:05;;;;;;;5.68;2.45;;;;;;;10.36;55.35;98789.09;7633661;32;39247;-85
2023/04/02 00:46:29;;;;;;;4.57;2.85;;;;;;;10.41;54.80;98791.72;7632688;32;40056;-84
2023/04/02 00:50:46;;;;;;;5.72;2.62;;;;;;;10.19;55.43;98794.19;7658684;32;38728;-85
2023/04/02 00:55:12;;;;;;;5.47;2.60;;;;;;;10.25;55.29;98798.47;7658761;32;36118;-85
2023/04/02 00:59:30;;;;;;;4.10;2.50;;;;;;;9.93;56.67;98800.81;7632588;32;39442;-85
2023/04/02 01:04:00;;;;;;;2.60;2.28;;;;;;;9.91;56.86;98799.47;7633480;32;40000;-84
2023/04/02 01:08:22;;;;;;;3.62;2.35;;;;;;;9.98;57.00;98799.13;7633011;32;37788;-85
2023/04/02 01:13:07;;;;;;;3.85;2.20;;;;;;;10.02;56.80;98800.97;7639142;32;37896;-85
2023/04/02 01:17:53;;;;;;;3.42;2.40;;;;;;;10.06;56.80;98799.28;7656809;32;39282;-85
2023/04/02 01:22:22;;;;;;;3.75;2.58;;;;;;;10.01;56.79;98802.06;7659547;32;40020;-85
2023/04/02 01:26:56;;;;;;;2.80;2.22;;;;;;;9.92;57.25;98801.09;7656728;32;38743;-86
2023/04/02 01:31:14;;;;;;;2.20;2.00;;;;;;;10.06;56.44;98815.59;7659598;32;38074;-85
2023/04/02 01:35:35;;;;;;;4.50;2.60;;;;;;;10.12;56.53;98816.34;7658227;32;39493;-85
2023/04/02 01:40:06;;;;;;;3.87;2.20;;;;;;;10.07;56.50;98817.25;7653062;32;40766;-86
2023/04/02 01:44:36;;;;;;;3.53;2.40;;;;;;;10.18;56.36;98817.91;7633064;32;38728;-85
2023/04/02 01:48:59;;;;;;;3.65;2.20;;;;;;;10.13;56.47;98828.88;7633078;32;36737;-85
2023/04/02 01:53:17;;;;;;;2.70;2.40;;;;;;;10.22;56.43;98826.31;7631785;32;40010;-86
2023/04/02 01:57:34;;;;;;;4.90;2.20;;;;;;;10.01;57.18;98825.75;7631640;32;39871;-85
2023/04/02 02:02:02;;;;;;;2.87;2.20;;;;;;;10.01;57.25;98820.31;7632729;32;38642;-85
2023/04/02 02:06:19;;;;;;;2.78;2.30;;;;;;;10.08;57.43;98826.22;7631471;32;37071;-86
2023/04/02 02:10:38;;;;;;;2.67;2.10;;;;;;;9.95;57.80;98827.72;7657042;32;39599;-86
2023/04/02 02:14:54;;;;;;;2.55;2.20;;;;;;;9.90;58.24;98819.63;7658888;32;39987;-86
2023/04/02 02:19:35;;;;;;;3.05;2.17;;;;;;;9.95;57.83;98825.00;7658912;32;38705;-85
2023/04/02 02:23:51;;;;;;;2.30;2.10;;;;;;;9.85;58.87;98834.13;7658864;32;37161;-85
2023/04/02 02:28:29;;;;;;;2.30;2.10;;;;;;;9.93;59.00;98821.75;7658967;32;40031;-85
2023/04/02 02:32:58;;;;;;;3.33;2.30;;;;;;;9.69;60.05;98828.03;7657641;32;39963;-86
2023/04/02 02:37:23;;;;;;;4.50;2.35;;;;;;;9.83;59.63;98824.59;7636767;32;38599;-86
2023/04/02 02:42:03;;;;;;;3.97;2.15;;;;;;;9.92;59.33;98828.31;7623404;32;37002;-85
2023/04/02 02:46:21;;;;;;;2.30;2.10;;;;;;;10.08;58.47;98837.91;7605793;32;37621;-85
2023/04/02 02:50:38;;;;;;;2.47;2.28;;;;;;;9.81;59.40;98837.69;7605093;32;39914;-86
2023/04/02 02:55:26;;;;;;;2.45;2.25;;;;;;;10.02;59.19;98844.53;7606000;32;37696;-85
2023/04/02 02:59:43;;;;;;;2.90;2.30;;;;;;;10.21;58.65;98841.00;7604018;32;37859;-85
2023/04/02 03:04:00;;;;;;;2.58;2.03;;;;;;;9.78;60.54;98831.75;7639924;32;39409;-85
2023/04/02 03:08:35;;;;;;;2.90;2.30;;;;;;;9.89;60.56;98839.78;7658091;32;39910;-85
2023/04/02 03:13:00;;;;;;;2.42;2.22;;;;;;;9.76;60.78;98828.50;7657221;32;38602;-85
2023/04/02 03:17:29;;;;;;;2.60;2.40;;;;;;;9.94;60.40;98837.00;7658264;32;37326;-85
2023/04/02 03:22:03;;;;;;;2.83;2.40;;;;;;;10.08;60.25;98843.34;7658201;32;39423;-87
2023/04/02 03:27:10;;;;;;;3.85;2.40;;;;;;;10.33;59.34;98844.16;7657042;32;39975;-85
2023/04/02 03:31:38;;;;;;;2.75;2.15;;;;;;;10.29;59.58;98843.09;7621911;32;37707;-86
2023/04/02 03:36:12;;;;;;;3.80;2.40;;;;;;;10.41;59.38;98838.03;7630495;32;37269;-85
2023/04/02 03:40:37;;;;;;;2.60;2.40;;;;;;;10.33;59.71;98841.41;7630505;32;40192;-86
2023/04/02 03:45:24;;;;;;;2.50;2.30;;;;;;;9.94;60.91;98845.97;7630404;32;40000;-87
2023/04/02 03:49:46;;;;;;;2.85;2.40;;;;;;;10.25;60.02;98848.31;7631055;32;36225;-86
2023/04/02 03:54:03;;;;;;;3.53;2.40;;;;;;;10.11;60.29;98852.88;7630146;32;37904;-86
2023/04/02 03:58:45;;;;;;;2.83;2.30;;;;;;;9.97;60.89;98855.50;7630822;32;40082;-86
2023/04/02 04:03:31;;;;;;;3.28;2.40;;;;;;;9.94;60.78;98845.16;7630009;32;40819;-87
2023/04/02 04:07:50;;;;;;;2.95;2.60;;;;;;;10.15;59.95;98849.25;7627059;32;39333;-86
2023/04/02 04:12:34;;;;;;;2.70;2.30;;;;;;;10.43;59.05;98856.84;7629773;32;36770;-86
2023/04/02 04:17:03;;;;;;;3.62;2.50;;;;;;;10.22;59.53;98869.88;7630823;32;38965;-86
2023/04/02 04:21:29;;;;;;;3.30;2.50;;;;;;;10.21;59.23;98876.44;7630838;32;40004;-87
2023/04/02 04:25:49;;;;;;;2.90;2.60;;;;;;;10.18;60.04;98877.03;7629405;32;38001;-86
2023/04/02 04:30:21;;;;;;;3.03;2.40;;;;;;;10.24;59.90;98878.56;7630534;32;38017;-87
2023/04/02 04:34:45;;;;;;;2.70;2.25;;;;;;;9.97;60.61;98880.00;7630396;32;39422;-86
2023/04/02 04:39:07;;;;;;;4.28;2.58;;;;;;;10.05;60.78;98890.22;7628974;32;40815;-86
2023/04/02 04:44:16;;;;;;;3.00;2.55;;;;;;;9.75;61.51;98889.47;7628937;32;38614;-87
2023/04/02 04:48:54;;;;;;;3.75;2.60;;;;;;;9.85;61.36;98895.91;7609574;32;36912;-86
2023/04/02 04:53:21;;;;;;;3.12;2.50;;;;;;;9.84;61.25;98900.53;7629976;32;38356;-86
2023/04/02 04:57:40;;;;;;;3.20;2.42;;;;;;;9.88;60.81;98900.78;7655262;32;40996;-86
2023/04/02 05:02:05;;;;;;;3.12;2.62;;;;;;;10.13;59.74;98908.66;7656142;32;37726;-87
2023/04/02 05:06:42;;;;;;;2.83;2.50;;;;;;;10.05;60.31;98914.72;7659698;32;37082;-87
2023/04/02 05:11:02;;;;;;;3.53;2.60;;;;;;;10.19;59.82;98914.03;7659731;32;40165;-85
2023/04/02 05:15:52;;;;;;;4.72;2.87;;;;;;;10.10;59.83;98919.31;7658506;32;39600;-87
2023/04/02 05:20:16;;;;;;;5.18;3.00;;;;;;;9.97;60.33;98912.66;7659659;32;37993;-85
2023/04/02 05:24:36;;;;;;;4.40;3.00;;;;;;;10.10;60.02;98922.03;7635091;32;36097;-86
2023/04/02 05:28:59;;;;;;;3.20;2.90;;;;;;;10.17;59.61;98917.06;7633197;32;39319;-86
2023/04/02 05:33:18;;;;;;;4.20;2.97;;;;;;;10.36;58.84;98919.06;7633209;32;40090;-86
2023/04/02 05:37:38;;;;;;;3.65;2.90;;;;;;;10.32;59.11;98921.56;7633116;32;37680;-86
2023/04/02 05:42:03;;;;;;;4.35;3.10;;;;;;;10.37;58.77;98924.22;7633154;32;37110;-86
2023/04/02 05:46:27;;;;;;;3.35;2.78;;;;;;;10.50;58.53;98926.22;7631942;32;39389;-86
2023/04/02 05:50:47;;;;;;;3.95;2.90;;;;;;;10.64;58.45;98936.41;7631708;32;40766;-87
2023/04/02 05:55:16;;;;;;;3.20;2.40;;;;;;;10.67;58.46;98938.53;7632419;32;37992;-86
2023/04/02 05:59:39;;;;;;;5.32;3.42;;;;;;;10.93;58.16;98935.47;7632835;32;38535;-86
2023/04/02 06:04:14;;;;;;;4.82;2.75;;;;;;;10.26;60.34;98933.56;7631694;32;39503;-86
2023/04/02 06:08:37;;;;;;;8.25;4.37;;;;;;;10.66;59.05;98934.22;7632573;32;40129;-86
2023/04/02 06:12:57;;;;;;;;;;;;;;;10.65;59.64;98938.81;7631657;32;38662;-87
2023/04/02 06:17:17;;;;;;;5.55;3.58;;;;;;;10.48;60.75;98939.31;7631983;32;36963;-86
2023/04/02 06:21:34;;;;;;;29.55;14.77;;;;;;;11.07;59.22;98947.25;7638400;32;39346;-86
2023/04/02 06:26:02;;;;;;;4.78;3.37;;;;;;;11.07;58.98;98950.81;7658682;32;40029;-86
2023/04/02 06:30:22;;;;;;;3.80;2.90;;;;;;;11.13;59.63;98943.34;7658802;32;37658;-86
2023/04/02 06:34:40;;;;;;;4.32;2.87;;;;;;;11.37;57.47;98945.16;7657620;32;37635;-86
2023/04/02 06:39:02;;;;;;;2.62;2.40;;;;;;;11.47;58.46;98942.28;7658480;32;40333;-86
2023/04/02 06:43:21;;;;;;;3.17;2.50;;;;;;;11.41;57.79;98946.19;7605535;32;41014;-86
2023/04/02 06:47:43;;;;;;;2.62;2.20;;;;;;;12.06;57.58;98948.09;7615447;32;37965;-85
2023/04/02 06:52:01;;;;;;;7.78;4.87;;;;;;;11.93;56.72;98955.13;7657464;32;38010;-86
2023/04/02 06:56:30;;;;;;;3.05;1.95;;;;;;;12.22;56.56;98954.06;7655323;32;39301;-87
2023/04/02 07:00:48;;;;;;;2.12;1.75;;;;;;;12.71;54.83;98958.00;7650381;32;40964;-86
2023/04/02 07:05:11;;;;;;;5.32;2.00;;;;;;;12.69;53.74;98959.41;7656964;32;37784;-86
2023/04/02 07:09:27;;;;;;;3.53;1.62;;;;;;;13.12;52.09;98967.22;7658002;32;37287;-88
2023/04/02 07:13:44;;;;;;;4.03;1.70;;;;;;;13.46;51.78;98971.41;7636559;32;40114;-88
2023/04/02 07:18:00;;;;;;;2.75;1.62;;;;;;;13.10;53.06;98963.97;7631496;32;40662;-87
2023/04/02 07:22:17;;;;;;;3.45;1.73;;;;;;;13.55;51.63;98974.19;7630560;32;38631;-85
2023/04/02 07:26:33;;;;;;;2.97;1.77;;;;;;;13.15;52.03;98980.28;7626595;32;38046;-79
2023/04/02 07:30:50;;;;;;;3.00;2.00;;;;;;;13.74;53.66;98971.25;7628422;32;39488;-76
2023/04/02 07:35:09;;;;;;;1.98;1.70;;;;;;;14.43;51.40;98976.25;7629402;32;40011;-76
2023/04/02 07:39:25;;;;;;;3.00;1.80;;;;;;;14.62;52.59;98971.34;7632054;32;37099;-81
2023/04/02 07:43:42;;;;;;;2.53;1.98;;;;;;;15.11;49.05;98973.22;7618124;32;37050;-88
2023/04/02 07:48:08;;;;;;;3.28;2.00;;;;;;;15.18;48.13;98973.56;7631484;32;39453;-84
2023/04/02 07:52:24;;;;;;;3.92;1.83;;;;;;;15.32;48.54;98974.19;7650801;32;39613;-87
2023/04/02 07:56:41;;;;;;;4.55;1.75;;;;;;;14.57;48.93;98996.19;7642559;32;37891;-89
2023/04/02 08:00:59;;;;;;;2.10;1.90;;;;;;;14.88;49.44;98989.00;7630833;32;37081;-90
2023/04/02 08:05:16;;;;;;;4.53;2.40;;;;;;;14.51;50.07;99000.19;7630629;32;38972;-88
2023/04/02 08:09:32;;;;;;;2.58;2.00;;;;;;;14.17;50.71;98989.88;7617189;32;39939;-89
2023/04/02 08:13:49;;;;;;;3.22;2.03;;;;;;;14.28;51.63;99000.25;7630671;32;38743;-86
2023/04/02 08:18:05;;;;;;;5.62;2.33;;;;;;;14.66;51.07;98998.97;7617858;32;37789;-88
2023/04/02 08:22:22;;;;;;;2.95;2.05;;;;;;;14.61;50.88;99007.34;7614976;32;39433;-88
2023/04/02 08:26:38;;;;;;;2.53;2.05;;;;;;;15.05;49.46;99002.75;7614328;32;41492;-87
2023/04/02 08:30:54;;;;;;;2.65;1.90;;;;;;;14.86;51.14;98997.56;7612307;32;37588;-89
2023/04/02 08:35:13;;;;;;;6.57;2.20;;;;;;;14.99;50.26;99004.06;7612636;32;37287;-90
2023/04/02 08:39:31;;;;;;;3.10;2.15;;;;;;;15.15;49.82;99007.12;7607950;32;39319;-91
2023/04/02 08:44:21;;;;;;;4.50;2.60;;;;;;;15.08;49.75;99023.28;7619920;32;40271;-89
2023/04/02 08:48:39;;;;;;;3.60;2.30;;;;;;;15.09;49.34;99013.91;7628378;32;38705;-89
2023/04/02 08:52:59;;;;;;;4.55;2.58;;;;;;;15.03;50.13;99019.53;7633614;32;37978;-88
2023/04/02 08:57:40;;;;;;;3.87;2.85;;;;;;;14.51;50.71;99030.34;7635703;32;39373;-88
2023/04/02 09:02:06;;;;;;;3.03;2.30;;;;;;;14.59;50.52;99032.34;7657583;32;39802;-89
2023/04/02 09:06:23;;;;;;;3.58;2.70;;;;;;;13.71;52.49;99046.63;7641157;32;37922;-90
2023/04/02 09:10:44;;;;;;;7.50;2.85;;;;;;;14.15;52.05;99036.78;7641491;32;38022;-89
2023/04/02 09:15:17;;;;;;;4.75;2.75;;;;;;;14.05;52.25;99037.03;7658485;32;39427;-88
2023/04/02 09:19:40;;;;;;;5.23;3.30;;;;;;;14.64;51.74;99037.69;7635086;32;40900;-89
2023/04/02 09:23:56;;;;;;;5.22;3.15;;;;;;;13.98;52.79;99047.63;7636977;32;38055;-87
2023/04/02 09:28:13;;;;;;;5.32;3.05;;;;;;;13.59;53.58;99041.72;7636065;32;37220;-89
2023/04/02 09:32:46;;;;;;;4.40;2.92;;;;;;;13.97;53.52;99046.00;7632068;32;39558;-77
2023/04/02 09:37:15;;;;;;;5.00;3.22;;;;;;;14.57;52.98;99042.81;7622722;32;40859;-89
2023/04/02 09:41:34;;;;;;;4.82;3.33;;;;;;;15.09;50.53;99044.94;7619064;32;38800;-89
2023/04/02 09:46:22;;;;;;;4.80;3.22;;;;;;;15.27;49.49;99048.50;7626543;32;37099;-88
2023/04/02 09:50:38;;;;;;;4.90;3.33;;;;;;;15.49;49.28;99050.31;7641054;32;38953;-88
2023/04/02 09:55:14;;;;;;;4.57;3.28;;;;;;;15.65;49.42;99056.13;7631722;32;40827;-89
2023/04/02 09:59:30;;;;;;;4.97;3.10;;;;;;;15.52;49.52;99051.56;7631875;32;37688;-86
2023/04/02 10:03:46;;;;;;;4.03;3.05;;;;;;;16.22;47.13;99046.06;7631988;32;37592;-86
2023/04/02 10:08:18;;;;;;;5.37;3.70;;;;;;;16.31;47.31;99052.31;7642959;32;39273;-88
2023/04/02 10:12:37;;;;;;;5.25;3.60;;;;;;;15.75;49.21;99053.06;7657027;32;39707;-87
2023/04/02 10:16:56;;;;;;;5.62;3.55;;;;;;;16.09;48.12;99053.34;7657397;32;38026;-87
2023/04/02 10:21:20;;;;;;;5.12;3.30;;;;;;;15.72;47.46;99050.94;7657554;32;38074;-86
2023/04/02 10:25:41;;;;;;;3.25;2.75;;;;;;;15.56;48.79;99044.31;7658768;32;40477;-87
2023/04/02 10:30:09;;;;;;;5.32;3.08;;;;;;;16.22;47.05;99043.31;7657478;32;40704;-87
2023/04/02 10:34:57;;;;;;;3.62;2.92;;;;;;;16.59;46.92;99040.91;7658449;32;38755;-87
2023/04/02 10:39:19;;;;;;;3.83;2.97;;;;;;;16.55;46.31;99039.94;7657471;32;37016;-87
2023/04/02 10:44:00;;;;;;;3.30;2.60;;;;;;;17.03;45.32;99038.78;7658478;32;40093;-87
2023/04/02 10:49:14;;;;;;;3.97;2.87;;;;;;;17.31;43.58;99038.28;7658389;32;40808;-85
2023/04/02 10:53:53;;;;;;;4.20;2.30;;;;;;;18.38;43.09;99031.16;7658286;32;37617;-85
2023/04/02 10:58:21;;;;;;;4.82;2.90;;;;;;;18.73;41.13;99030.72;7657626;32;36946;-86
2023/04/02 11:03:03;;;;;;;4.53;3.08;;;;;;;19.11;41.05;99029.56;7656192;32;39992;-85
2023/04/02 11:07:25;;;;;;;4.87;3.10;;;;;;;18.59;40.30;99032.97;7652899;32;167239;-86
2023/04/02 11:11:45;;;;;;;5.70;2.58;;;;;;;18.38;40.62;99036.66;7656894;32;38136;-86
2023/04/02 11:16:02;;;;;;;5.95;2.97;;;;;;;19.50;41.49;99038.22;7656983;32;37025;-85
2023/04/02 11:20:42;;;;;;;3.50;2.65;;;;;;;19.55;38.25;99036.38;7644319;32;39873;-85
2023/04/02 11:24:59;;;;;;;6.50;3.00;;;;;;;18.28;39.84;99037.09;7657920;32;40897;-85
2023/04/02 11:29:25;;;;;;;4.57;2.97;;;;;;;17.86;41.49;99041.88;7656456;32;37854;-85
2023/04/02 11:33:41;;;;;;;4.65;2.92;;;;;;;17.49;42.71;99044.44;7656746;32;37885;-87
2023/04/02 11:38:09;;;;;;;4.20;2.67;;;;;;;16.68;44.76;99045.22;7657698;32;40224;-87
2023/04/02 11:42:25;;;;;;;;;;;;;;;16.73;43.95;99032.41;7657922;32;40754;-86
2023/04/02 11:46:44;;;;;;;3.25;2.30;;;;;;;17.41;43.21;99029.59;7657605;32;38138;-87
2023/04/02 11:51:09;;;;;;;3.17;2.40;;;;;;;18.00;41.60;99031.38;7657958;32;37784;-87
2023/04/02 11:55:33;;;;;;;4.57;2.65;;;;;;;18.80;39.61;99015.50;7657496;32;39329;-87
2023/04/02 12:00:31;;;;;;;2.37;1.85;;;;;;;19.75;39.10;99015.25;7656151;32;41238;-88
2023/04/02 12:05:18;;;;;;;4.20;1.95;;;;;;;20.00;37.81;99011.19;7608925;32;37817;-86
2023/04/02 12:09:42;;;;;;;2.47;1.83;;;;;;;20.45;35.82;99001.72;7657194;32;37114;-88
2023/04/02 12:13:59;;;;;;;1.45;1.33;;;;;;;19.36;36.02;99001.87;7659654;32;39820;-87
2023/04/02 12:18:21;;;;;;;1.80;1.70;;;;;;;20.75;34.63;98997.72;7660057;32;40796;-88
2023/04/02 12:22:44;;;;;;;2.80;1.70;;;;;;;20.27;34.78;99000.47;7660101;32;38673;-88
2023/04/02 12:27:15;;;;;;;;;;;;;;;19.76;35.20;99006.59;7660437;32;37948;-87
2023/04/02 12:31:32;;;;;;;2.75;1.50;;;;;;;19.26;36.13;98999.59;7660198;32;40354;-88
2023/04/02 12:36:07;;;;;;;2.58;1.60;;;;;;;18.75;36.78;98995.28;7658745;32;39571;-85
2023/04/02 12:40:27;;;;;;;4.05;1.50;;;;;;;19.02;37.30;98987.44;7659244;32;37959;-88
2023/04/02 12:44:48;;;;;;;2.65;1.67;;;;;;;19.63;35.22;98983.72;7652790;32;37127;-89
2023/04/02 12:49:26;;;;;;;1.15;1.00;;;;;;;19.25;35.46;98981.44;7641213;32;39894;-88
2023/04/02 12:53:48;;;;;;;1.83;1.30;;;;;;;19.48;33.47;98982.50;7632492;32;40773;-84
2023/04/02 12:58:22;;;;;;;1.50;1.30;;;;;;;20.15;33.05;98973.66;7639032;32;39210;-85
2023/04/02 13:02:58;;;;;;;1.30;1.20;;;;;;;20.65;32.44;98976.09;7659716;32;37848;-84
2023/04/02 13:07:19;;;;;;;1.48;1.37;;;;;;;19.85;34.44;98984.31;7658955;32;40384;-83
2023/04/02 13:11:38;;;;;;;2.58;1.40;;;;;;;19.83;34.61;98975.56;7630906;32;40055;-84
2023/04/02 13:16:13;;;;;;;1.92;1.50;;;;;;;20.43;34.60;98961.69;7655322;32;39483;-85
2023/04/02 13:20:34;;;;;;;2.55;2.12;;;;;;;20.25;33.28;98955.75;7648193;32;36915;-84
2023/04/02 13:24:54;;;;;;;5.45;2.50;;;;;;;19.75;34.37;98958.00;7632679;32;39356;-84
2023/04/02 13:29:35;;;;;;;1.70;1.42;;;;;;;19.05;36.54;98959.13;7631623;32;40887;-84
2023/04/02 13:33:51;;;;;;;3.12;1.60;;;;;;;20.05;34.13;98966.69;7623941;32;38006;-82
2023/04/02 13:38:07;;;;;;;2.60;1.75;;;;;;;20.84;32.05;98959.53;7632535;32;36939;-75
2023/04/02 13:42:24;;;;;;;3.17;1.70;;;;;;;19.67;34.72;98978.28;7632596;32;39409;-83
2023/04/02 13:46:40;;;;;;;2.97;1.95;;;;;;;19.83;37.57;98995.75;7632543;32;39975;-83
2023/04/02 13:50:56;;;;;;;7.10;2.20;;;;;;;19.49;43.12;98992.41;7632419;32;37572;-83
2023/04/02 13:55:14;;;;;;;4.93;2.40;;;;;;;19.25;46.71;99009.06;7633240;32;36964;-82
2023/04/02 13:59:30;;;;;;;3.90;2.28;;;;;;;18.05;48.71;99022.09;7633319;32;39513;-82
2023/04/02 14:03:46;;;;;;;3.95;2.33;;;;;;;17.42;50.73;99012.75;7616224;32;39689;-83
2023/04/02 14:08:20;;;;;;;4.22;2.40;;;;;;;17.00;50.28;98998.12;7606728;32;37858;-82
2023/04/02 14:13:03;;;;;;;3.78;2.20;;;;;;;16.87;51.47;99011.81;7619850;32;37789;-82
2023/04/02 14:17:35;;;;;;;2.53;1.90;;;;;;;16.93;51.67;99019.88;7610495;32;39382;-80
2023/04/02 14:22:05;;;;;;;2.35;2.00;;;;;;;16.52;53.35;99025.72;7632315;32;40080;-81
2023/04/02 14:26:42;;;;;;;4.07;2.30;;;;;;;16.45;54.06;99021.84;7621232;32;38023;-83
2023/04/02 14:31:15;;;;;;;4.15;2.47;;;;;;;16.15;54.37;99039.09;7607160;32;38295;-84
2023/04/02 14:35:43;;;;;;;4.28;2.50;;;;;;;15.67;56.30;99044.81;7622252;32;40071;-83
2023/04/02 14:40:20;;;;;;;3.40;2.53;;;;;;;15.65;56.45;99047.87;7632185;32;40033;-83
2023/04/02 14:44:56;;;;;;;5.32;2.70;;;;;;;15.28;55.78;99050.13;7625489;32;37999;-83
2023/04/02 14:49:42;;;;;;;5.18;3.25;;;;;;;15.59;52.53;99057.38;7610033;32;38126;-83
2023/04/02 14:54:11;;;;;;;5.05;3.40;;;;;;;15.30;54.73;99052.56;7628980;32;39312;-82
2023/04/02 14:58:33;;;;;;;5.10;2.70;;;;;;;15.12;60.08;99037.97;7640809;32;39956;-83
2023/04/02 15:03:11;;;;;;;5.57;3.47;;;;;;;15.48;58.58;99043.19;7634973;32;38643;-85
2023/04/02 15:07:36;;;;;;;6.05;3.40;;;;;;;15.42;56.99;99049.97;7633643;32;37871;-83
2023/04/02 15:11:58;;;;;;;6.85;3.17;;;;;;;15.09;55.84;99046.84;7604347;32;39658;-83
2023/04/02 15:16:21;;;;;;;5.87;3.15;;;;;;;15.12;55.58;99047.00;7616345;32;40119;-84
2023/04/02 15:20:45;;;;;;;8.00;4.25;;;;;;;15.58;55.29;99040.09;7631797;32;37670;-84
2023/04/02 15:25:05;;;;;;;6.12;3.30;;;;;;;15.76;56.13;99048.37;7638706;32;37271;-84
2023/04/02 15:29:43;;;;;;;5.75;2.85;;;;;;;16.05;52.22;99050.44;7631520;32;39349;-83
2023/04/02 15:34:12;;;;;;;3.05;2.20;;;;;;;15.83;52.46;99058.88;7631585;32;39915;-83
2023/04/02 15:38:38;;;;;;;7.62;2.85;;;;;;;16.16;52.33;99061.91;7628068;32;37542;-83
2023/04/02 15:43:17;;;;;;;3.92;2.10;;;;;;;16.10;54.40;99055.75;7617654;32;37220;-83
2023/04/02 15:47:42;;;;;;;2.83;2.10;;;;;;;16.05;49.72;99060.62;7606069;32;40104;-84
2023/04/02 15:52:11;;;;;;;6.68;2.05;;;;;;;16.61;50.36;99063.37;7608919;32;40809;-83
2023/04/02 15:56:35;;;;;;;3.10;1.85;;;;;;;17.03;45.19;99066.31;7618794;32;38693;-83
2023/04/02 16:01:07;;;;;;;2.53;1.40;;;;;;;17.32;46.16;99078.47;7602572;32;37046;-83
2023/04/02 16:05:40;;;;;;;1.98;1.00;;;;;;;17.48;43.49;99070.41;7611658;32;39423;-83
2023/04/02 16:09:59;;;;;;;1.58;1.10;;;;;;;17.27;40.79;99088.50;7624622;32;40284;-84
2023/04/02 16:14:26;;;;;;;1.67;1.05;;;;;;;17.42;40.72;99086.34;7624552;32;37888;-83
2023/04/02 16:18:58;;;;;;;1.00;1.00;;;;;;;17.40;39.49;99092.19;7632750;32;36277;-84
2023/04/02 16:23:19;;;;;;;1.10;1.00;;;;;;;18.21;38.49;99092.00;7643069;32;40070;-84
2023/04/02 16:27:41;;;;;;;1.65;1.15;;;;;;;20.47;32.60;99091.91;7631356;32;40978;-82
2023/04/02 16:31:58;;;;;;;1.40;1.30;;;;;;;19.44;33.73;99100.44;7622620;32;36497;-82
2023/04/02 16:36:36;;;;;;;1.37;1.02;;;;;;;20.01;31.66;99103.31;7649090;32;37047;-81
2023/04/02 16:41:18;;;;;;;2.22;1.60;;;;;;;20.21;30.80;99109.78;7637918;32;38958;-82
2023/04/02 16:46:03;;;;;;;2.90;1.80;;;;;;;17.86;33.76;99125.41;7642864;32;40624;-80
2023/04/02 16:50:45;;;;;;;1.80;1.45;;;;;;;16.51;37.54;99145.16;7638130;32;38257;-81
2023/04/02 16:55:22;;;;;;;2.62;1.95;;;;;;;15.28;39.35;99154.47;7629877;32;37190;-81
2023/04/02 17:00:10;;;;;;;2.95;1.83;;;;;;;15.24;39.71;99158.16;7631462;32;39381;-80
2023/04/02 17:05:01;;;;;;;3.22;2.08;;;;;;;14.85;39.98;99174.31;7633674;32;39710;-82
2023/04/02 17:09:47;;;;;;;3.90;2.20;;;;;;;14.21;40.59;99178.09;7626434;32;37826;-82
2023/04/02 17:14:08;;;;;;;2.92;2.25;;;;;;;13.98;41.70;99177.22;7633334;32;37146;-83
2023/04/02 17:18:25;;;;;;;5.03;2.53;;;;;;;13.67;42.50;99190.81;7633198;32;38974;-83
2023/04/02 17:22:41;;;;;;;3.28;2.40;;;;;;;13.13;43.86;99199.53;7635943;32;39978;-83
2023/04/02 17:27:04;;;;;;;2.97;2.28;;;;;;;13.21;44.12;99217.19;7631751;32;37987;-83
2023/04/02 17:31:24;;;;;;;2.72;2.00;;;;;;;12.86;44.96;99226.84;7631938;32;36982;-83
2023/04/02 17:35:59;;;;;;;3.03;2.10;;;;;;;12.83;43.79;99230.19;7631842;32;38341;-83
2023/04/02 17:40:38;;;;;;;2.67;2.30;;;;;;;12.54;43.21;99248.44;7632895;32;39900;-83
2023/04/02 17:45:22;;;;;;;4.05;2.30;;;;;;;12.40;44.47;99261.25;7643881;32;37992;-83
2023/04/02 17:49:56;;;;;;;2.87;2.20;;;;;;;12.63;43.14;99272.38;7629356;32;37238;-82
2023/04/02 17:54:26;;;;;;;2.87;2.20;;;;;;;12.14;44.12;99288.09;7629336;32;40141;-83
2023/04/02 17:59:16;;;;;;;2.87;2.20;;;;;;;11.99;43.86;99300.87;7602179;32;39604;-82
2023/04/02 18:04:06;;;;;;;2.67;2.05;;;;;;;11.71;43.75;99290.81;7621434;32;38750;-82
2023/04/02 18:08:31;;;;;;;2.95;2.00;;;;;;;11.86;43.58;99320.66;7632519;32;37609;-83
2023/04/02 18:13:05;;;;;;;2.50;1.95;;;;;;;11.67;43.40;99328.00;7632515;32;40163;-81
2023/04/02 18:17:31;;;;;;;2.87;2.37;;;;;;;11.78;43.37;99337.69;7643433;32;39961;-82
2023/04/02 18:22:21;;;;;;;3.37;2.20;;;;;;;10.92;44.37;99351.06;7632333;32;38307;-82
2023/04/02 18:27:14;;;;;;;4.80;2.42;;;;;;;10.83;44.49;99359.88;7637538;32;37271;-83
2023/04/02 18:31:46;;;;;;;3.70;2.72;;;;;;;10.80;44.62;99368.63;7609638;32;39088;-83
2023/04/02 18:36:26;;;;;;;3.17;2.60;;;;;;;10.44;45.92;99366.13;7642963;32;40009;-82
2023/04/02 18:41:14;;;;;;;3.67;2.53;;;;;;;10.59;45.84;99387.03;7640595;32;38740;-82
2023/04/02 18:45:40;;;;;;;7.47;3.40;;;;;;;10.85;45.30;99393.13;7629639;32;38362;-82
2023/04/02 18:50:14;;;;;;;6.55;3.50;;;;;;;10.37;45.95;99406.50;7631251;32;39328;-83
2023/04/02 18:54:32;;;;;;;6.22;3.92;;;;;;;10.81;45.30;99408.41;7617381;32;40627;-83
2023/04/02 18:59:15;;;;;;;8.00;3.78;;;;;;;10.79;45.17;99417.97;7637462;32;37180;-84
2023/04/02 19:03:42;;;;;;;8.35;4.45;;;;;;;10.73;45.52;99419.94;7614799;32;37147;-84
2023/04/02 19:08:18;;;;;;;8.07;4.37;;;;;;;10.50;46.32;99424.97;7641870;32;39487;-85
2023/04/02 19:12:35;;;;;;;8.10;4.95;;;;;;;10.37;45.95;99439.19;7625162;32;39658;-83
2023/04/02 19:17:10;;;;;;;6.93;3.78;;;;;;;10.36;46.64;99445.72;7613209;32;37952;-83
2023/04/02 19:22:04;;;;;;;5.50;3.10;;;;;;;10.63;44.98;99463.59;7630225;32;38066;-82
2023/04/02 19:26:23;;;;;;;;;;;;;;;10.31;46.33;99460.19;7629626;32;40069;-84
2023/04/02 19:31:23;;;;;;;4.15;2.50;;;;;;;10.25;46.44;99464.00;7631904;32;41036;-84
2023/04/02 19:36:07;;;;;;;5.07;2.42;;;;;;;10.44;46.32;99471.59;7631438;32;37906;-84
2023/04/02 19:40:27;;;;;;;;;;;;;;;10.18;46.96;99468.13;7631742;32;37068;-83
2023/04/02 19:44:49;;;;;;;4.45;3.17;;;;;;;10.02;47.27;99480.94;7631778;32;39624;-83
2023/04/02 19:49:31;;;;;;;3.62;2.75;;;;;;;10.18;46.56;99479.00;7617391;32;41130;-84
2023/04/02 19:53:47;;;;;;;3.55;2.60;;;;;;;10.25;45.85;99490.44;7630407;32;37850;-83
2023/04/02 19:58:04;;;;;;;4.32;2.70;;;;;;;10.12;46.13;99498.09;7631067;32;37058;-84
2023/04/02 20:02:34;;;;;;;3.47;2.50;;;;;;;10.48;45.24;99495.28;7630850;32;39592;-84
2023/04/02 20:06:51;;;;;;;5.57;3.15;;;;;;;10.52;45.81;99504.53;7630714;32;39658;-83
2023/04/02 20:11:07;;;;;;;5.32;3.12;;;;;;;10.17;45.78;99515.50;7630036;32;38694;-84
2023/04/02 20:15:23;;;;;;;5.95;3.75;;;;;;;10.10;46.30;99522.03;7630553;32;37023;-83
2023/04/02 20:19:40;;;;;;;4.30;3.10;;;;;;;10.54;45.01;99531.53;7626327;32;40071;-84
2023/04/02 20:23:56;;;;;;;5.22;3.20;;;;;;;10.06;45.69;99545.47;7612619;32;40860;-84
2023/04/02 20:28:13;;;;;;;4.90;3.40;;;;;;;10.10;44.83;99543.84;7630054;32;38562;-84
2023/04/02 20:32:29;;;;;;;7.50;4.25;;;;;;;9.55;45.85;99554.50;7630431;32;37392;-83
2023/04/02 20:36:45;;;;;;;6.30;4.03;;;;;;;9.84;45.86;99556.66;7633498;32;39373;-82
2023/04/02 20:41:03;;;;;;;9.70;4.40;;;;;;;9.92;45.87;99566.19;7633677;32;40067;-82
2023/04/02 20:45:19;;;;;;;8.27;4.82;;;;;;;9.35;47.43;99579.75;7646421;32;38605;-82
2023/04/02 20:49:36;;;;;;;9.00;5.30;;;;;;;9.63;46.03;99583.06;7659969;32;37347;-82
2023/04/02 20:53:53;;;;;;;8.90;4.87;;;;;;;8.99;47.31;99587.81;7659935;32;39967;-83
2023/04/02 20:58:09;;;;;;;8.25;4.72;;;;;;;9.54;47.15;99579.25;7659843;32;40761;-83
2023/04/02 21:02:25;;;;;;;7.07;4.62;;;;;;;8.80;47.25;99586.62;7659647;32;37867;-83